Newton, MA (02456)

2:32 AM EDT on August 04, 2015 (GMT -0400)
Waban MA | | Change Station
CLOSE
Current Station
Personal Weather Station
Location: Waban, MA
Elevation: 142 ft
Nearby Weather Stations

Elev 142 ft 42.33 °N, 71.22 °W | Updated 2 seconds ago

Clear
Clear
73.3 °F
Feels Like 71 °F
N
0.0
Wind Variable Wind from NE
Gusts 1.0 mph

Today
High -- | Low -- °F
--% Chance of Precip.
Yesterday
High -- | Low -- °F
Precip. -- in
5:40 AM 8:00 PM
Waning Gibbous, 80% visible
Pressure 29.81 in
Visibility 10.0 miles
Clouds Few 11000 ft
Heat Index 71 °F
Dew Point 70 °F
Humidity 90%
Rainfall 0.00 in
Snow Depth Not available.
UV 0 out of 12
Pollen 6.00 out of 12
Air Quality Not available.
Flu Activity Not available.
METAR KOWD 040553Z 19003KT 10SM FEW110 23/21 A2981 RMK AO2 SLP095 T02280211 10261 20222 55000

More Conditions Fewer Conditions

Pressure 29.81 in
Visibility 10.0 miles
Clouds Few 11000 ft
Heat Index 71 °F
Dew Point 70 °F
Humidity 90%
Rainfall 0.00 in
Snow Depth Not available.
UV 0 out of 12
Pollen 6.00 out of 12
Air Quality Not available.
Flu Activity Not available.
METAR KOWD 040553Z 19003KT 10SM FEW110 23/21 A2981 RMK AO2 SLP095 T02280211 10261 20222 55000

More Conditions Fewer Conditions

10-Day Weather Forecast

×

Almanac

Astronomy

Aug. 04, 2015 Rise Set
Actual Time
Civil Twilight
Nautical Twilight
Astronomical Twilight
Moon
Length of Visible Light
Length of Day
Tomorrow will be .
, % of the Moon is Illuminated

Today's Extremes

State Highs State Lows

Community

WunderPhotos

Upload Photos

1,843,876 photos uploaded!

WunderBlogs® & News

Nearby

Air Quality

  Air Quality AQ Index Pollutant
Not available.

Snow Depth

Station Depth Elevation

Earthquake Activity

City Distance Mag. Time & Date
Minimum magnitude displayed is 2.5.

Coastal Water Temperatures

Place Temperature

Stations

Nearby Weather Stations

Station Location Temp. Windchill Dew Point Humidity Wind Precip. Elev Updated Type